sensor_id;sensor_type;location;lat;lon;timestamp;pressure;altitude;pressure_sealevel;temperature;humidity
16030;BME280;34770;49.272;11.070;2023-08-21T00:01:21;98163.28;;;23.05;78.68
16030;BME280;34770;49.272;11.070;2023-08-21T00:03:47;98161.69;;;22.83;79.50
16030;BME280;34770;49.272;11.070;2023-08-21T00:06:12;98164.69;;;22.88;80.09
16030;BME280;34770;49.272;11.070;2023-08-21T00:08:37;98171.72;;;22.91;80.09
16030;BME280;34770;49.272;11.070;2023-08-21T00:11:03;98178.09;;;22.91;79.85
16030;BME280;34770;49.272;11.070;2023-08-21T00:13:28;98181.53;;;23.00;80.02
16030;BME280;34770;49.272;11.070;2023-08-21T00:15:54;98189.78;;;22.93;79.88
16030;BME280;34770;49.272;11.070;2023-08-21T00:18:20;98166.97;;;22.78;79.74
16030;BME280;34770;49.272;11.070;2023-08-21T00:20:46;98164.81;;;22.46;81.22
16030;BME280;34770;49.272;11.070;2023-08-21T00:23:11;98172.47;;;22.44;82.19
16030;BME280;34770;49.272;11.070;2023-08-21T00:25:36;98161.03;;;22.47;81.51
16030;BME280;34770;49.272;11.070;2023-08-21T00:28:02;98158.47;;;22.45;81.53
16030;BME280;34770;49.272;11.070;2023-08-21T00:30:28;98182.22;;;22.68;81.22
16030;BME280;34770;49.272;11.070;2023-08-21T00:32:53;98185.63;;;22.70;81.13
16030;BME280;34770;49.272;11.070;2023-08-21T00:35:19;98171.38;;;22.66;81.17
16030;BME280;34770;49.272;11.070;2023-08-21T00:37:44;98178.22;;;22.77;81.32
16030;BME280;34770;49.272;11.070;2023-08-21T00:40:10;98177.47;;;22.89;80.60
16030;BME280;34770;49.272;11.070;2023-08-21T00:42:35;98167.09;;;22.98;80.07
16030;BME280;34770;49.272;11.070;2023-08-21T00:45:01;98156.44;;;22.95;79.75
16030;BME280;34770;49.272;11.070;2023-08-21T00:47:26;98180.72;;;23.06;80.26
16030;BME280;34770;49.272;11.070;2023-08-21T00:49:51;98181.34;;;23.01;80.54
16030;BME280;34770;49.272;11.070;2023-08-21T00:52:17;98181.34;;;23.01;80.15
16030;BME280;34770;49.272;11.070;2023-08-21T00:54:43;98183.72;;;23.04;80.26
16030;BME280;34770;49.272;11.070;2023-08-21T00:57:09;98195.00;;;23.16;80.67
16030;BME280;34770;49.272;11.070;2023-08-21T00:59:35;98173.28;;;23.06;79.92
16030;BME280;34770;49.272;11.070;2023-08-21T01:02:01;98166.28;;;23.10;79.91
16030;BME280;34770;49.272;11.070;2023-08-21T01:04:26;98195.38;;;23.41;79.81
16030;BME280;34770;49.272;11.070;2023-08-21T01:06:51;98195.78;;;23.44;79.30
16030;BME280;34770;49.272;11.070;2023-08-21T01:09:36;98203.25;;;23.50;78.72
16030;BME280;34770;49.272;11.070;2023-08-21T01:12:21;98200.72;;;23.49;78.61
16030;BME280;34770;49.272;11.070;2023-08-21T01:14:51;98202.41;;;23.43;78.11
16030;BME280;34770;49.272;11.070;2023-08-21T01:17:19;98199.84;;;23.42;78.50
16030;BME280;34770;49.272;11.070;2023-08-21T01:19:49;98197.03;;;23.35;78.71
16030;BME280;34770;49.272;11.070;2023-08-21T01:22:15;98190.19;;;23.31;78.39
16030;BME280;34770;49.272;11.070;2023-08-21T01:24:40;98203.59;;;23.34;78.15
16030;BME280;34770;49.272;11.070;2023-08-21T01:27:06;98211.50;;;23.37;78.21
16030;BME280;34770;49.272;11.070;2023-08-21T01:29:32;98183.38;;;23.34;78.31
16030;BME280;34770;49.272;11.070;2023-08-21T01:32:07;98207.94;;;23.50;77.57
16030;BME280;34770;49.272;11.070;2023-08-21T01:34:37;98200.91;;;23.47;77.37
16030;BME280;34770;49.272;11.070;2023-08-21T01:37:03;98204.09;;;23.44;77.61
16030;BME280;34770;49.272;11.070;2023-08-21T01:39:29;98195.16;;;23.42;77.43
16030;BME280;34770;49.272;11.070;2023-08-21T01:41:56;98172.31;;;23.34;77.47
16030;BME280;34770;49.272;11.070;2023-08-21T01:44:21;98176.44;;;23.38;77.37
16030;BME280;34770;49.272;11.070;2023-08-21T01:46:47;98189.44;;;23.50;77.31
16030;BME280;34770;49.272;11.070;2023-08-21T01:49:12;98153.13;;;23.13;78.31
16030;BME280;34770;49.272;11.070;2023-08-21T01:51:37;98177.81;;;23.27;78.44
16030;BME280;34770;49.272;11.070;2023-08-21T01:54:03;98151.25;;;23.26;78.59
16030;BME280;34770;49.272;11.070;2023-08-21T01:56:28;98173.44;;;23.39;78.20
16030;BME280;34770;49.272;11.070;2023-08-21T01:58:53;98165.53;;;23.30;78.62
16030;BME280;34770;49.272;11.070;2023-08-21T02:01:19;98163.72;;;23.09;79.11
16030;BME280;34770;49.272;11.070;2023-08-21T02:03:45;98163.81;;;22.88;80.50
16030;BME280;34770;49.272;11.070;2023-08-21T02:06:11;98169.47;;;23.14;80.28
16030;BME280;34770;49.272;11.070;2023-08-21T02:08:36;98171.78;;;23.04;80.20
16030;BME280;34770;49.272;11.070;2023-08-21T02:11:02;98169.22;;;23.02;80.51
16030;BME280;34770;49.272;11.070;2023-08-21T02:13:27;98147.91;;;22.96;80.02
16030;BME280;34770;49.272;11.070;2023-08-21T02:15:53;98181.72;;;22.92;80.79
16030;BME280;34770;49.272;11.070;2023-08-21T02:18:18;98159.75;;;22.49;81.92
16030;BME280;34770;49.272;11.070;2023-08-21T02:20:43;98174.66;;;22.55;82.81
16030;BME280;34770;49.272;11.070;2023-08-21T02:23:09;98169.59;;;22.59;82.66
16030;BME280;34770;49.272;11.070;2023-08-21T02:25:34;98191.63;;;22.80;82.09
16030;BME280;34770;49.272;11.070;2023-08-21T02:28:00;98168.66;;;22.73;82.28
16030;BME280;34770;49.272;11.070;2023-08-21T02:30:28;98174.19;;;22.73;82.15
16030;BME280;34770;49.272;11.070;2023-08-21T02:32:53;98173.56;;;22.77;82.10
16030;BME280;34770;49.272;11.070;2023-08-21T02:35:22;98181.84;;;22.77;81.79
16030;BME280;34770;49.272;11.070;2023-08-21T02:37:47;98157.59;;;22.73;81.85
16030;BME280;34770;49.272;11.070;2023-08-21T02:40:13;98187.03;;;22.93;81.34
16030;BME280;34770;49.272;11.070;2023-08-21T02:42:38;98189.19;;;22.98;80.66
16030;BME280;34770;49.272;11.070;2023-08-21T02:45:04;98187.34;;;22.71;81.47
16030;BME280;34770;49.272;11.070;2023-08-21T02:47:37;98194.00;;;22.55;82.82
16030;BME280;34770;49.272;11.070;2023-08-21T02:50:06;98191.47;;;22.53;82.79
16030;BME280;34770;49.272;11.070;2023-08-21T02:52:33;98185.22;;;22.45;83.05
16030;BME280;34770;49.272;11.070;2023-08-21T02:54:58;98187.13;;;22.44;83.35
16030;BME280;34770;49.272;11.070;2023-08-21T02:57:27;98202.84;;;22.65;83.16
16030;BME280;34770;49.272;11.070;2023-08-21T02:59:53;98200.16;;;22.57;82.94
16030;BME280;34770;49.272;11.070;2023-08-21T03:02:19;98195.75;;;22.63;82.25
16030;BME280;34770;49.272;11.070;2023-08-21T03:04:45;98208.91;;;22.61;82.27
16030;BME280;34770;49.272;11.070;2023-08-21T03:07:10;98197.38;;;22.50;82.63
16030;BME280;34770;49.272;11.070;2023-08-21T03:09:36;98183.91;;;22.41;82.40
16030;BME280;34770;49.272;11.070;2023-08-21T03:12:02;98204.44;;;22.32;83.49
16030;BME280;34770;49.272;11.070;2023-08-21T03:14:28;98196.88;;;22.40;83.50
16030;BME280;34770;49.272;11.070;2023-08-21T03:16:53;98169.16;;;22.27;83.30
16030;BME280;34770;49.272;11.070;2023-08-21T03:19:18;98173.59;;;22.22;83.02
16030;BME280;34770;49.272;11.070;2023-08-21T03:21:44;98177.59;;;22.19;83.56
16030;BME280;34770;49.272;11.070;2023-08-21T03:24:09;98196.31;;;22.24;83.58
16030;BME280;34770;49.272;11.070;2023-08-21T03:26:35;98179.91;;;22.16;83.83
16030;BME280;34770;49.272;11.070;2023-08-21T03:29:00;98177.53;;;22.13;83.81
16030;BME280;34770;49.272;11.070;2023-08-21T03:31:26;98183.78;;;22.21;83.89
16030;BME280;34770;49.272;11.070;2023-08-21T03:33:51;98186.47;;;22.15;84.03
16030;BME280;34770;49.272;11.070;2023-08-21T03:36:18;98176.03;;;22.10;83.98
16030;BME280;34770;49.272;11.070;2023-08-21T03:38:44;98194.22;;;22.26;84.09
16030;BME280;34770;49.272;11.070;2023-08-21T03:41:11;98187.78;;;22.19;84.35
16030;BME280;34770;49.272;11.070;2023-08-21T03:43:36;98183.19;;;22.05;84.97
16030;BME280;34770;49.272;11.070;2023-08-21T03:46:02;98178.44;;;21.92;85.06
16030;BME280;34770;49.272;11.070;2023-08-21T03:48:27;98166.72;;;21.90;85.20
16030;BME280;34770;49.272;11.070;2023-08-21T03:50:53;98177.44;;;22.00;84.82
16030;BME280;34770;49.272;11.070;2023-08-21T03:53:18;98189.91;;;22.17;84.33
16030;BME280;34770;49.272;11.070;2023-08-21T03:55:44;98174.31;;;22.09;83.61
16030;BME280;34770;49.272;11.070;2023-08-21T03:58:09;98175.00;;;22.11;83.60
16030;BME280;34770;49.272;11.070;2023-08-21T04:00:35;98163.56;;;21.93;84.03
16030;BME280;34770;49.272;11.070;2023-08-21T04:03:00;98182.19;;;22.12;83.78
16030;BME280;34770;49.272;11.070;2023-08-21T04:05:25;98210.97;;;22.24;83.65
16030;BME280;34770;49.272;11.070;2023-08-21T04:07:51;98198.34;;;22.09;83.77
16030;BME280;34770;49.272;11.070;2023-08-21T04:10:16;98179.72;;;21.96;83.94
16030;BME280;34770;49.272;11.070;2023-08-21T04:12:42;98196.06;;;22.19;83.96
16030;BME280;34770;49.272;11.070;2023-08-21T04:15:08;98188.00;;;22.17;83.55
16030;BME280;34770;49.272;11.070;2023-08-21T04:17:33;98204.03;;;22.35;83.11
16030;BME280;34770;49.272;11.070;2023-08-21T04:19:58;98207.09;;;22.40;82.91
16030;BME280;34770;49.272;11.070;2023-08-21T04:22:24;98187.59;;;22.20;82.89
16030;BME280;34770;49.272;11.070;2023-08-21T04:24:49;98213.91;;;22.44;82.75
16030;BME280;34770;49.272;11.070;2023-08-21T04:27:15;98203.00;;;22.36;82.64
16030;BME280;34770;49.272;11.070;2023-08-21T04:29:40;98197.16;;;22.24;83.02
16030;BME280;34770;49.272;11.070;2023-08-21T04:32:06;98210.94;;;22.45;82.56
16030;BME280;34770;49.272;11.070;2023-08-21T04:34:35;98214.38;;;22.54;82.91
16030;BME280;34770;49.272;11.070;2023-08-21T04:37:00;98208.22;;;22.52;82.42
16030;BME280;34770;49.272;11.070;2023-08-21T04:39:26;98196.22;;;22.38;81.72
16030;BME280;34770;49.272;11.070;2023-08-21T04:41:51;98192.41;;;22.12;83.19
16030;BME280;34770;49.272;11.070;2023-08-21T04:44:17;98207.28;;;22.38;83.06
16030;BME280;34770;49.272;11.070;2023-08-21T04:46:43;98211.59;;;22.47;83.08
16030;BME280;34770;49.272;11.070;2023-08-21T04:49:08;98213.97;;;22.50;82.28
16030;BME280;34770;49.272;11.070;2023-08-21T04:51:34;98204.84;;;22.29;82.79
16030;BME280;34770;49.272;11.070;2023-08-21T04:53:59;98224.94;;;22.44;82.58
16030;BME280;34770;49.272;11.070;2023-08-21T04:56:25;98209.69;;;22.20;82.95
16030;BME280;34770;49.272;11.070;2023-08-21T04:58:52;98200.78;;;22.25;83.03
16030;BME280;34770;49.272;11.070;2023-08-21T05:01:18;98225.28;;;22.34;83.08
16030;BME280;34770;49.272;11.070;2023-08-21T05:03:43;98208.44;;;22.23;82.74
16030;BME280;34770;49.272;11.070;2023-08-21T05:06:09;98224.25;;;22.35;83.21
16030;BME280;34770;49.272;11.070;2023-08-21T05:08:34;98197.66;;;22.34;82.68
16030;BME280;34770;49.272;11.070;2023-08-21T05:11:00;98232.09;;;22.60;82.41
16030;BME280;34770;49.272;11.070;2023-08-21T05:13:26;98232.78;;;22.68;82.10
16030;BME280;34770;49.272;11.070;2023-08-21T05:15:56;98227.50;;;22.67;81.85
16030;BME280;34770;49.272;11.070;2023-08-21T05:18:22;98240.34;;;22.81;81.73
16030;BME280;34770;49.272;11.070;2023-08-21T05:20:48;98212.66;;;22.74;81.43
16030;BME280;34770;49.272;11.070;2023-08-21T05:23:14;98218.88;;;22.83;80.87
16030;BME280;34770;49.272;11.070;2023-08-21T05:25:39;98242.19;;;23.01;81.17
16030;BME280;34770;49.272;11.070;2023-08-21T05:28:06;98202.38;;;22.96;80.52
16030;BME280;34770;49.272;11.070;2023-08-21T05:30:31;98224.56;;;23.09;80.46
16030;BME280;34770;49.272;11.070;2023-08-21T05:32:57;98218.66;;;23.25;79.93
16030;BME280;34770;49.272;11.070;2023-08-21T05:35:22;98241.53;;;23.40;79.47
16030;BME280;34770;49.272;11.070;2023-08-21T05:37:47;98238.97;;;23.39;79.36
16030;BME280;34770;49.272;11.070;2023-08-21T05:40:13;98240.47;;;23.41;78.66
16030;BME280;34770;49.272;11.070;2023-08-21T05:42:38;98231.97;;;23.43;78.14
16030;BME280;34770;49.272;11.070;2023-08-21T05:45:05;98237.53;;;23.49;78.58
16030;BME280;34770;49.272;11.070;2023-08-21T05:47:30;98238.78;;;23.47;78.62
16030;BME280;34770;49.272;11.070;2023-08-21T05:49:56;98234.09;;;23.47;78.62
16030;BME280;34770;49.272;11.070;2023-08-21T05:52:22;98253.97;;;23.64;79.07
16030;BME280;34770;49.272;11.070;2023-08-21T05:54:48;98236.06;;;23.53;78.93
16030;BME280;34770;49.272;11.070;2023-08-21T05:57:14;98252.50;;;23.68;78.57
16030;BME280;34770;49.272;11.070;2023-08-21T05:59:48;98247.84;;;23.82;78.00
16030;BME280;34770;49.272;11.070;2023-08-21T06:02:14;98251.06;;;23.85;77.73
16030;BME280;34770;49.272;11.070;2023-08-21T06:04:41;98253.00;;;23.98;77.46
16030;BME280;34770;49.272;11.070;2023-08-21T06:07:07;98259.81;;;24.08;76.82
16030;BME280;34770;49.272;11.070;2023-08-21T06:09:32;98229.41;;;24.15;75.92
16030;BME280;34770;49.272;11.070;2023-08-21T06:11:59;98226.00;;;24.26;76.08
16030;BME280;34770;49.272;11.070;2023-08-21T06:14:26;98225.16;;;24.39;75.34
16030;BME280;34770;49.272;11.070;2023-08-21T06:16:56;98258.63;;;24.63;75.11
16030;BME280;34770;49.272;11.070;2023-08-21T06:19:22;98237.94;;;24.66;75.21
16030;BME280;34770;49.272;11.070;2023-08-21T06:21:47;98238.56;;;24.88;74.44
16030;BME280;34770;49.272;11.070;2023-08-21T06:24:12;98260.31;;;25.04;73.59
16030;BME280;34770;49.272;11.070;2023-08-21T06:26:38;98247.03;;;25.12;73.15
16030;BME280;34770;49.272;11.070;2023-08-21T06:29:03;98271.50;;;25.42;72.56
16030;BME280;34770;49.272;11.070;2023-08-21T06:31:28;98260.59;;;25.53;72.49
16030;BME280;34770;49.272;11.070;2023-08-21T06:33:54;98260.63;;;25.40;71.98
16030;BME280;34770;49.272;11.070;2023-08-21T06:36:20;98266.78;;;25.62;71.74
16030;BME280;34770;49.272;11.070;2023-08-21T06:38:45;98270.94;;;25.77;71.55
16030;BME280;34770;49.272;11.070;2023-08-21T06:41:11;98266.97;;;26.05;71.04
16030;BME280;34770;49.272;11.070;2023-08-21T06:43:36;98276.50;;;26.22;70.23
16030;BME280;34770;49.272;11.070;2023-08-21T06:46:02;98270.50;;;26.25;70.00
16030;BME280;34770;49.272;11.070;2023-08-21T06:48:27;98273.91;;;26.27;70.01
16030;BME280;34770;49.272;11.070;2023-08-21T06:50:52;98267.34;;;26.21;69.65
16030;BME280;34770;49.272;11.070;2023-08-21T06:53:18;98266.66;;;25.88;71.01
16030;BME280;34770;49.272;11.070;2023-08-21T06:55:45;98277.66;;;26.08;70.45
16030;BME280;34770;49.272;11.070;2023-08-21T06:58:11;98271.75;;;26.29;69.89
16030;BME280;34770;49.272;11.070;2023-08-21T07:00:36;98285.81;;;26.34;70.38
16030;BME280;34770;49.272;11.070;2023-08-21T07:03:01;98277.34;;;26.54;69.55
16030;BME280;34770;49.272;11.070;2023-08-21T07:05:28;98279.34;;;26.71;69.18
16030;BME280;34770;49.272;11.070;2023-08-21T07:07:54;98255.13;;;26.78;68.08
16030;BME280;34770;49.272;11.070;2023-08-21T07:10:20;98271.72;;;26.35;69.12
16030;BME280;34770;49.272;11.070;2023-08-21T07:12:46;98281.13;;;26.34;69.52
16030;BME280;34770;49.272;11.070;2023-08-21T07:15:11;98279.19;;;26.66;68.72
16030;BME280;34770;49.272;11.070;2023-08-21T07:17:36;98276.88;;;26.88;68.19
16030;BME280;34770;49.272;11.070;2023-08-21T07:20:02;98277.97;;;27.05;67.92
16030;BME280;34770;49.272;11.070;2023-08-21T07:22:29;98268.31;;;27.26;67.16
16030;BME280;34770;49.272;11.070;2023-08-21T07:24:54;98284.00;;;27.45;66.40
16030;BME280;34770;49.272;11.070;2023-08-21T07:27:20;98282.13;;;27.75;65.36
16030;BME280;34770;49.272;11.070;2023-08-21T07:29:45;98278.66;;;27.43;65.74
16030;BME280;34770;49.272;11.070;2023-08-21T07:32:10;98282.59;;;27.72;65.80
16030;BME280;34770;49.272;11.070;2023-08-21T07:34:36;98279.19;;;27.52;65.80
16030;BME280;34770;49.272;11.070;2023-08-21T07:37:01;98265.38;;;27.21;66.90
16030;BME280;34770;49.272;11.070;2023-08-21T07:39:26;98259.88;;;26.71;67.59
16030;BME280;34770;49.272;11.070;2023-08-21T07:41:52;98276.31;;;26.79;68.77
16030;BME280;34770;49.272;11.070;2023-08-21T07:44:18;98280.78;;;27.23;67.19
16030;BME280;34770;49.272;11.070;2023-08-21T07:46:44;98289.22;;;27.35;67.35
16030;BME280;34770;49.272;11.070;2023-08-21T07:49:09;98282.66;;;27.84;65.87
16030;BME280;34770;49.272;11.070;2023-08-21T07:51:35;98276.28;;;28.13;64.04
16030;BME280;34770;49.272;11.070;2023-08-21T07:54:00;98271.78;;;28.42;63.62
16030;BME280;34770;49.272;11.070;2023-08-21T07:56:26;98283.41;;;28.80;62.61
16030;BME280;34770;49.272;11.070;2023-08-21T07:58:51;98267.06;;;29.07;61.89
16030;BME280;34770;49.272;11.070;2023-08-21T08:01:16;98282.38;;;29.27;60.69
16030;BME280;34770;49.272;11.070;2023-08-21T08:03:42;98290.09;;;29.14;61.38
16030;BME280;34770;49.272;11.070;2023-08-21T08:06:07;98278.94;;;29.14;60.98
16030;BME280;34770;49.272;11.070;2023-08-21T08:08:32;98279.56;;;29.04;60.79
16030;BME280;34770;49.272;11.070;2023-08-21T08:11:02;98277.13;;;29.08;61.19
16030;BME280;34770;49.272;11.070;2023-08-21T08:13:29;98286.94;;;29.57;60.54
16030;BME280;34770;49.272;11.070;2023-08-21T08:15:54;98291.03;;;29.77;60.09
16030;BME280;34770;49.272;11.070;2023-08-21T08:18:19;98295.03;;;29.93;59.84
16030;BME280;34770;49.272;11.070;2023-08-21T08:20:45;98290.00;;;29.55;58.42
16030;BME280;34770;49.272;11.070;2023-08-21T08:23:10;98292.72;;;29.90;57.71
16030;BME280;34770;49.272;11.070;2023-08-21T08:25:36;98294.84;;;29.37;58.36
16030;BME280;34770;49.272;11.070;2023-08-21T08:28:02;98280.06;;;29.24;60.25
16030;BME280;34770;49.272;11.070;2023-08-21T08:30:27;98288.03;;;29.09;60.04
16030;BME280;34770;49.272;11.070;2023-08-21T08:32:53;98275.31;;;29.37;59.42
16030;BME280;34770;49.272;11.070;2023-08-21T08:35:18;98277.00;;;29.49;59.44
16030;BME280;34770;49.272;11.070;2023-08-21T08:37:43;98297.22;;;29.91;58.09
16030;BME280;34770;49.272;11.070;2023-08-21T08:40:10;98289.97;;;29.67;57.66
16030;BME280;34770;49.272;11.070;2023-08-21T08:42:36;98301.97;;;29.91;57.94
16030;BME280;34770;49.272;11.070;2023-08-21T08:45:03;98299.81;;;30.09;58.15
16030;BME280;34770;49.272;11.070;2023-08-21T08:47:31;98289.63;;;30.43;55.91
16030;BME280;34770;49.272;11.070;2023-08-21T08:49:57;98277.13;;;30.06;56.06
16030;BME280;34770;49.272;11.070;2023-08-21T08:52:26;98295.06;;;30.50;56.21
16030;BME280;34770;49.272;11.070;2023-08-21T08:54:52;98285.31;;;30.52;55.75
16030;BME280;34770;49.272;11.070;2023-08-21T08:57:19;98306.75;;;30.47;57.15
16030;BME280;34770;49.272;11.070;2023-08-21T08:59:45;98298.34;;;30.18;56.46
16030;BME280;34770;49.272;11.070;2023-08-21T09:02:10;98295.31;;;29.57;58.05
16030;BME280;34770;49.272;11.070;2023-08-21T09:04:35;98301.25;;;29.72;57.48
16030;BME280;34770;49.272;11.070;2023-08-21T09:07:08;98290.81;;;29.67;57.73
16030;BME280;34770;49.272;11.070;2023-08-21T09:09:54;98296.66;;;29.66;59.30
16030;BME280;34770;49.272;11.070;2023-08-21T09:12:19;98284.66;;;30.45;56.10
16030;BME280;34770;49.272;11.070;2023-08-21T09:14:45;98298.47;;;30.52;56.49
16030;BME280;34770;49.272;11.070;2023-08-21T09:17:11;98296.72;;;30.34;56.09
16030;BME280;34770;49.272;11.070;2023-08-21T09:19:37;98280.59;;;30.53;56.21
16030;BME280;34770;49.272;11.070;2023-08-21T09:24:36;98280.03;;;30.84;53.82
16030;BME280;34770;49.272;11.070;2023-08-21T09:27:01;98290.03;;;30.96;55.12
16030;BME280;34770;49.272;11.070;2023-08-21T09:29:38;98293.22;;;31.38;53.69
16030;BME280;34770;49.272;11.070;2023-08-21T09:32:04;98287.84;;;31.32;53.30
16030;BME280;34770;49.272;11.070;2023-08-21T09:34:36;98273.72;;;31.82;52.99
16030;BME280;34770;49.272;11.070;2023-08-21T09:37:06;98284.25;;;31.36;51.67
16030;BME280;34770;49.272;11.070;2023-08-21T09:39:36;98282.03;;;31.38;52.31
16030;BME280;34770;49.272;11.070;2023-08-21T09:42:06;98277.78;;;31.52;53.93
16030;BME280;34770;49.272;11.070;2023-08-21T09:44:44;98290.88;;;32.07;50.22
16030;BME280;34770;49.272;11.070;2023-08-21T09:47:10;98286.06;;;32.78;49.59
16030;BME280;34770;49.272;11.070;2023-08-21T09:49:37;98279.34;;;33.10;50.65
16030;BME280;34770;49.272;11.070;2023-08-21T09:52:05;98278.47;;;33.42;46.81
16030;BME280;34770;49.272;11.070;2023-08-21T09:54:33;98272.69;;;33.58;48.99
16030;BME280;34770;49.272;11.070;2023-08-21T09:57:03;98278.31;;;33.63;46.16
16030;BME280;34770;49.272;11.070;2023-08-21T09:59:29;98262.09;;;31.73;48.36
16030;BME280;34770;49.272;11.070;2023-08-21T10:01:58;98266.44;;;32.02;50.05
16030;BME280;34770;49.272;11.070;2023-08-21T10:04:25;98265.53;;;32.72;47.03
16030;BME280;34770;49.272;11.070;2023-08-21T10:06:52;98242.47;;;31.95;48.27
16030;BME280;34770;49.272;11.070;2023-08-21T10:09:20;98257.41;;;32.49;49.47
16030;BME280;34770;49.272;11.070;2023-08-21T10:11:47;98240.34;;;33.14;47.01
16030;BME280;34770;49.272;11.070;2023-08-21T10:14:13;98260.19;;;33.39;42.06
16030;BME280;34770;49.272;11.070;2023-08-21T10:16:38;98255.06;;;33.73;41.31
16030;BME280;34770;49.272;11.070;2023-08-21T10:19:04;98263.03;;;33.96;42.66
16030;BME280;34770;49.272;11.070;2023-08-21T10:21:37;98255.59;;;32.96;43.97
16030;BME280;34770;49.272;11.070;2023-08-21T10:24:02;98249.13;;;32.59;43.81
16030;BME280;34770;49.272;11.070;2023-08-21T10:26:28;98250.84;;;32.97;41.45
16030;BME280;34770;49.272;11.070;2023-08-21T10:28:56;98252.47;;;33.61;44.59
16030;BME280;34770;49.272;11.070;2023-08-21T10:33:56;98252.81;;;34.52;38.03
16030;BME280;34770;49.272;11.070;2023-08-21T10:39:16;98232.16;;;34.16;38.46
16030;BME280;34770;49.272;11.070;2023-08-21T10:41:56;98247.41;;;34.25;40.69
16030;BME280;34770;49.272;11.070;2023-08-21T10:54:58;98242.72;;;34.66;40.35
16030;BME280;34770;49.272;11.070;2023-08-21T10:57:24;98218.22;;;34.92;39.04
16030;BME280;34770;49.272;11.070;2023-08-21T10:59:57;98233.72;;;34.84;38.33
16030;BME280;34770;49.272;11.070;2023-08-21T11:02:25;98214.56;;;35.17;38.89
16030;BME280;34770;49.272;11.070;2023-08-21T11:04:51;98222.41;;;35.35;39.87
16030;BME280;34770;49.272;11.070;2023-08-21T11:07:17;98231.66;;;34.34;39.61
16030;BME280;34770;49.272;11.070;2023-08-21T11:09:43;98213.69;;;34.96;41.64
16030;BME280;34770;49.272;11.070;2023-08-21T11:12:11;98230.28;;;35.43;38.57
16030;BME280;34770;49.272;11.070;2023-08-21T11:14:38;98206.63;;;35.29;38.24
16030;BME280;34770;49.272;11.070;2023-08-21T11:17:04;98217.09;;;34.68;39.04
16030;BME280;34770;49.272;11.070;2023-08-21T11:19:33;98209.84;;;33.95;40.38
16030;BME280;34770;49.272;11.070;2023-08-21T11:21:59;98200.69;;;34.24;40.78
16030;BME280;34770;49.272;11.070;2023-08-21T11:27:07;98219.56;;;34.34;39.44
16030;BME280;34770;49.272;11.070;2023-08-21T11:29:37;98215.47;;;33.90;39.28
16030;BME280;34770;49.272;11.070;2023-08-21T11:32:03;98211.69;;;34.46;39.44
16030;BME280;34770;49.272;11.070;2023-08-21T11:34:28;98212.38;;;33.34;40.92
16030;BME280;34770;49.272;11.070;2023-08-21T11:36:54;98211.16;;;33.67;42.09
16030;BME280;34770;49.272;11.070;2023-08-21T11:39:20;98212.25;;;34.33;38.82
16030;BME280;34770;49.272;11.070;2023-08-21T11:41:56;98194.84;;;34.91;38.26
16030;BME280;34770;49.272;11.070;2023-08-21T11:44:22;98212.22;;;35.49;38.32
16030;BME280;34770;49.272;11.070;2023-08-21T11:46:50;98192.69;;;35.78;36.59
16030;BME280;34770;49.272;11.070;2023-08-21T11:49:17;98200.16;;;36.13;36.74
16030;BME280;34770;49.272;11.070;2023-08-21T11:51:45;98214.53;;;35.37;38.25
16030;BME280;34770;49.272;11.070;2023-08-21T11:54:10;98193.13;;;36.05;37.18
16030;BME280;34770;49.272;11.070;2023-08-21T11:56:38;98195.25;;;35.69;35.01
16030;BME280;34770;49.272;11.070;2023-08-21T11:59:04;98202.56;;;36.34;36.28
16030;BME280;34770;49.272;11.070;2023-08-21T12:01:33;98212.28;;;36.62;35.00
16030;BME280;34770;49.272;11.070;2023-08-21T12:03:59;98206.69;;;35.09;35.86
16030;BME280;34770;49.272;11.070;2023-08-21T12:06:24;98197.59;;;35.32;35.57
16030;BME280;34770;49.272;11.070;2023-08-21T12:08:51;98191.41;;;35.30;35.62
16030;BME280;34770;49.272;11.070;2023-08-21T12:11:16;98209.75;;;34.87;35.66
16030;BME280;34770;49.272;11.070;2023-08-21T12:13:41;98204.88;;;35.63;35.54
16030;BME280;34770;49.272;11.070;2023-08-21T12:16:06;98187.94;;;35.63;35.82
16030;BME280;34770;49.272;11.070;2023-08-21T12:18:32;98189.69;;;35.44;35.89
16030;BME280;34770;49.272;11.070;2023-08-21T12:20:57;98194.19;;;35.55;35.28
16030;BME280;34770;49.272;11.070;2023-08-21T12:23:23;98187.69;;;36.24;36.36
16030;BME280;34770;49.272;11.070;2023-08-21T12:25:48;98194.41;;;36.28;33.85
16030;BME280;34770;49.272;11.070;2023-08-21T12:28:14;98192.41;;;36.72;33.63
16030;BME280;34770;49.272;11.070;2023-08-21T12:30:39;98196.31;;;36.81;34.11
16030;BME280;34770;49.272;11.070;2023-08-21T12:33:04;98194.69;;;35.72;34.13
16030;BME280;34770;49.272;11.070;2023-08-21T12:35:30;98191.31;;;36.29;35.14
16030;BME280;34770;49.272;11.070;2023-08-21T12:37:57;98199.81;;;36.68;35.45
16030;BME280;34770;49.272;11.070;2023-08-21T12:40:22;98188.09;;;36.46;34.03
16030;BME280;34770;49.272;11.070;2023-08-21T12:42:48;98192.13;;;36.35;34.92
16030;BME280;34770;49.272;11.070;2023-08-21T12:45:13;98186.53;;;36.69;33.53
16030;BME280;34770;49.272;11.070;2023-08-21T12:47:38;98183.34;;;35.82;35.30
16030;BME280;34770;49.272;11.070;2023-08-21T12:50:05;98181.28;;;36.08;35.01
16030;BME280;34770;49.272;11.070;2023-08-21T12:52:31;98179.59;;;35.28;35.56
16030;BME280;34770;49.272;11.070;2023-08-21T12:54:56;98174.41;;;35.60;37.62
16030;BME280;34770;49.272;11.070;2023-08-21T12:57:21;98176.16;;;36.10;36.46
16030;BME280;34770;49.272;11.070;2023-08-21T12:59:47;98164.84;;;36.20;34.55
16030;BME280;34770;49.272;11.070;2023-08-21T13:02:12;98173.47;;;35.85;39.39
16030;BME280;34770;49.272;11.070;2023-08-21T13:04:38;98181.94;;;35.80;35.68
16030;BME280;34770;49.272;11.070;2023-08-21T13:07:04;98178.47;;;35.19;40.28